Time;durP1;ratioP1;P1;durP2;ratioP2;P2;SDS_P1;SDS_P2;PMS_P1;PMS_P2;Temp;Humidity;BMP_temperature;BMP_pressure;BME280_temperature;BME280_humidity;BME280_pressure;Samples;Min_cycle;Max_cycle;Signal;HPM_P1;HPM_P2
2022/12/07 00:01:33;;;;;;;0.13;0.13;;;;;;;8.31;61.24;95108.41;5056453;28;20250;-63
2022/12/07 00:04:06;;;;;;;0.38;0.38;;;;;;;8.51;60.53;95113.97;5072665;28;20445;-63
2022/12/07 00:06:42;;;;;;;0.80;0.77;;;;;;;8.67;60.62;95102.72;5073310;28;20231;-63
2022/12/07 00:09:15;;;;;;;2.00;0.95;;;;;;;8.91;59.79;95109.38;5073085;28;20460;-64
2022/12/07 00:11:42;;;;;;;0.98;0.98;;;;;;;8.69;60.24;95084.19;5072556;28;20220;-61
2022/12/07 00:14:15;;;;;;;8.30;1.23;;;;;;;8.87;59.35;95103.03;5072333;28;20192;-63
2022/12/07 00:16:43;;;;;;;0.60;0.60;;;;;;;8.44;60.25;95107.31;5066849;28;21031;-62
2022/12/07 00:19:12;;;;;;;0.65;0.65;;;;;;;8.60;60.06;95089.03;5052209;28;20668;-63
2022/12/07 00:21:39;;;;;;;0.55;0.40;;;;;;;8.73;59.90;95096.56;5051998;28;20193;-64
2022/12/07 00:24:06;;;;;;;6.90;2.10;;;;;;;8.79;59.31;95100.84;5062378;28;20227;-64
2022/12/07 00:26:38;;;;;;;0.82;0.82;;;;;;;8.93;58.95;95096.06;5058163;28;20710;-65
2022/12/07 00:29:13;;;;;;;2.17;0.95;;;;;;;8.72;59.52;95094.97;5062795;28;20654;-62
2022/12/07 00:31:40;;;;;;;1.95;1.83;;;;;;;8.56;60.35;95095.75;5065984;28;20221;-61
2022/12/07 00:34:11;;;;;;;0.60;0.60;;;;;;;8.57;60.14;95092.13;5051990;28;20228;-65
2022/12/07 00:36:38;;;;;;;0.88;0.32;;;;;;;8.65;60.00;95101.41;5066148;28;20299;-66
2022/12/07 00:39:05;;;;;;;0.20;0.20;;;;;;;8.84;59.32;95113.97;5058693;28;20279;-63
2022/12/07 00:41:32;;;;;;;0.75;0.73;;;;;;;8.91;59.71;95114.59;5071616;28;20191;-65
2022/12/07 00:43:58;;;;;;;3.13;1.10;;;;;;;8.02;61.27;95104.22;5071187;28;20204;-66
2022/12/07 00:46:26;;;;;;;0.30;0.30;;;;;;;7.94;61.87;95101.97;5072636;28;20219;-65
2022/12/07 00:48:54;;;;;;;11.88;1.15;;;;;;;8.32;61.01;95104.75;5068121;28;20466;-63
2022/12/07 00:51:24;;;;;;;2.92;1.92;;;;;;;8.41;61.12;95098.13;5055484;28;20188;-64
2022/12/07 00:53:52;;;;;;;1.63;1.30;;;;;;;8.01;61.85;95100.03;5064926;28;20200;-63
2022/12/07 00:56:25;;;;;;;0.50;0.50;;;;;;;8.03;62.14;95095.34;5072049;28;20811;-63
2022/12/07 00:58:58;;;;;;;0.98;0.98;;;;;;;8.32;61.60;95094.31;5059295;28;20224;-62
2022/12/07 01:01:27;;;;;;;1.07;0.80;;;;;;;8.51;61.21;95094.88;5071253;28;20192;-64
2022/12/07 01:03:55;;;;;;;0.47;0.47;;;;;;;8.43;61.41;95092.69;5071941;28;21261;-65
2022/12/07 01:06:23;;;;;;;0.93;0.93;;;;;;;8.22;61.76;95094.13;5071527;28;20200;-64
2022/12/07 01:08:50;;;;;;;6.78;1.20;;;;;;;8.72;60.80;95084.50;5061502;28;20438;-62
2022/12/07 01:11:20;;;;;;;2.90;0.95;;;;;;;8.48;61.13;95085.72;5054000;28;20208;-62
2022/12/07 01:13:49;;;;;;;1.17;1.17;;;;;;;7.95;62.59;95093.94;5062529;28;20200;-66
2022/12/07 01:16:17;;;;;;;0.13;0.13;;;;;;;7.72;63.10;95103.69;5052305;28;20259;-64
2022/12/07 01:18:47;;;;;;;0.03;0.03;;;;;;;8.15;62.16;95096.09;5071636;28;20215;-64
2022/12/07 01:21:15;;;;;;;1.48;1.10;;;;;;;8.38;61.34;95098.59;5070877;28;20684;-62
2022/12/07 01:23:43;;;;;;;1.45;1.35;;;;;;;8.50;61.29;95088.91;5071078;28;20238;-63
2022/12/07 01:26:12;;;;;;;0.10;0.10;;;;;;;8.71;61.04;95072.50;5071013;28;20196;-66
2022/12/07 01:28:39;;;;;;;1.80;1.70;;;;;;;8.59;60.98;95084.84;5056449;28;20196;-65
2022/12/07 01:31:14;;;;;;;1.17;1.08;;;;;;;8.65;61.01;95073.44;5070896;28;20426;-63
2022/12/07 01:33:49;;;;;;;0.45;0.45;;;;;;;8.72;60.60;95081.91;5052084;28;20713;-65
2022/12/07 01:36:18;;;;;;;8.70;1.65;;;;;;;8.71;60.48;95072.50;5051123;28;20192;-66
2022/12/07 01:38:47;;;;;;;1.85;1.33;;;;;;;8.39;61.88;95068.88;5069072;28;20636;-62
2022/12/07 01:41:14;;;;;;;0.25;0.25;;;;;;;8.58;61.21;95067.59;5060138;28;20250;-65
2022/12/07 01:44:07;;;;;;;0.70;0.63;;;;;;;8.87;59.43;95069.06;5064649;28;20317;-65
2022/12/07 01:46:34;;;;;;;1.70;1.60;;;;;;;8.31;61.51;95082.31;5063347;28;20527;-63
2022/12/07 01:49:03;;;;;;;0.03;0.03;;;;;;;8.57;60.60;95076.47;5056375;28;20465;-66
2022/12/07 01:51:30;;;;;;;4.97;1.65;;;;;;;8.69;60.36;95071.13;5062902;28;20663;-65
2022/12/07 01:53:58;;;;;;;0.93;0.93;;;;;;;8.72;60.88;95071.44;5064524;28;20743;-65
2022/12/07 01:56:28;;;;;;;2.93;2.63;;;;;;;8.50;60.83;95070.63;5056491;28;20199;-65
2022/12/07 01:58:58;;;;;;;0.57;0.57;;;;;;;8.58;60.70;95067.59;5057455;28;20486;-65
2022/12/07 02:01:25;;;;;;;4.17;1.37;;;;;;;8.57;60.90;95068.63;5055537;28;20286;-64
2022/12/07 02:03:53;;;;;;;1.95;1.77;;;;;;;8.37;61.55;95062.28;5058669;28;20494;-62
2022/12/07 02:06:23;;;;;;;4.88;2.63;;;;;;;8.24;61.80;95055.56;5068093;28;20198;-65
2022/12/07 02:08:50;;;;;;;0.43;0.43;;;;;;;8.29;62.19;95058.25;5070254;28;20627;-67
2022/12/07 02:11:18;;;;;;;1.73;0.75;;;;;;;8.26;61.75;95057.94;5067535;28;20356;-65
2022/12/07 02:13:46;;;;;;;3.17;2.88;;;;;;;8.44;61.54;95055.88;5059134;28;20207;-65
2022/12/07 02:16:42;;;;;;;0.93;0.88;;;;;;;8.68;60.85;95062.53;5070103;28;20651;-62
2022/12/07 02:19:27;;;;;;;0.60;0.60;;;;;;;8.64;60.91;95061.41;5068129;28;20686;-66
2022/12/07 02:22:11;;;;;;;0.20;0.20;;;;;;;7.62;63.38;95061.75;5055613;28;20315;-65
2022/12/07 02:24:44;;;;;;;0.50;0.50;;;;;;;7.93;62.74;95063.88;5069458;28;20192;-63
2022/12/07 02:27:10;;;;;;;2.85;1.27;;;;;;;8.22;61.97;95068.03;5049157;28;20270;-63
2022/12/07 02:29:58;;;;;;;3.30;1.38;;;;;;;8.03;62.62;95056.22;5063706;28;20557;-63
2022/12/07 02:32:31;;;;;;;0.40;0.40;;;;;;;7.57;63.80;95053.84;5050566;28;20197;-64
2022/12/07 02:35:06;;;;;;;1.00;0.95;;;;;;;7.61;64.27;95049.75;5049734;28;20455;-64
2022/12/07 02:37:42;;;;;;;2.92;1.80;;;;;;;8.21;61.84;95046.34;5050779;28;20196;-63
2022/12/07 02:40:22;;;;;;;0.82;0.82;;;;;;;8.10;61.72;95043.84;5063586;28;20195;-64
2022/12/07 02:42:57;;;;;;;2.50;2.30;;;;;;;8.29;62.13;95047.81;5050269;28;20216;-63
2022/12/07 02:45:26;;;;;;;0.00;0.00;;;;;;;8.38;61.80;95056.84;5063582;28;20474;-64
2022/12/07 02:47:58;;;;;;;1.17;1.07;;;;;;;8.42;61.31;95047.50;5059259;28;20478;-62
2022/12/07 02:50:26;;;;;;;0.57;0.57;;;;;;;8.67;60.90;95055.72;5055393;28;20435;-65
2022/12/07 02:52:53;;;;;;;1.67;1.42;;;;;;;8.78;59.85;95051.41;5055681;28;20212;-63
2022/12/07 02:55:27;;;;;;;1.13;1.05;;;;;;;8.14;61.71;95050.13;5069554;28;20205;-66
2022/12/07 02:58:02;;;;;;;2.17;1.97;;;;;;;7.98;62.50;95050.91;5051268;28;20212;-61
2022/12/07 03:00:35;;;;;;;1.20;1.10;;;;;;;7.67;62.97;95048.78;5049523;28;20435;-65
2022/12/07 03:03:11;;;;;;;1.17;1.07;;;;;;;7.93;63.24;95043.81;5068109;28;20512;-62
2022/12/07 03:05:47;;;;;;;0.95;0.95;;;;;;;7.92;62.64;95041.41;5069527;28;20444;-63
2022/12/07 03:08:29;;;;;;;0.45;0.45;;;;;;;8.29;61.64;95037.38;5063807;28;20228;-63
2022/12/07 03:11:08;;;;;;;1.27;1.17;;;;;;;8.22;61.71;95021.03;5049006;28;20911;-62
2022/12/07 03:13:46;;;;;;;0.43;0.43;;;;;;;8.38;61.31;95025.50;5057174;28;20465;-64
2022/12/07 03:16:40;;;;;;;0.60;0.60;;;;;;;8.24;61.00;95029.47;5053556;28;20972;-62
2022/12/07 03:19:15;;;;;;;2.67;1.55;;;;;;;8.12;61.72;95016.44;5060661;28;20207;-62
2022/12/07 03:21:46;;;;;;;6.07;1.70;;;;;;;8.20;60.98;95023.09;5069217;28;20701;-62
2022/12/07 03:24:20;;;;;;;1.95;1.85;;;;;;;7.42;64.01;95020.44;5069520;28;20223;-64
2022/12/07 03:26:52;;;;;;;2.08;1.63;;;;;;;7.90;62.54;95023.38;5069055;28;20244;-62
2022/12/07 03:29:27;;;;;;;0.90;0.90;;;;;;;7.81;62.31;95016.19;5069154;28;20733;-63
2022/12/07 03:32:02;;;;;;;3.60;2.28;;;;;;;7.77;62.07;95015.09;5064885;28;20894;-64
2022/12/07 03:34:48;;;;;;;1.20;1.10;;;;;;;7.96;61.84;95027.66;5049005;28;20208;-65
2022/12/07 03:37:28;;;;;;;0.68;0.68;;;;;;;7.95;61.82;95025.31;5069448;28;20296;-64
2022/12/07 03:40:12;;;;;;;1.05;0.95;;;;;;;8.35;61.24;95031.22;5072812;28;20683;-62
2022/12/07 03:42:40;;;;;;;1.40;1.30;;;;;;;8.28;60.75;95030.56;5061107;28;20604;-62
2022/12/07 03:45:07;;;;;;;3.97;3.38;;;;;;;7.63;62.79;95032.03;5072853;28;20199;-63
2022/12/07 03:47:52;;;;;;;1.30;1.23;;;;;;;7.76;62.63;95022.09;5073080;28;20231;-66
2022/12/07 03:50:42;;;;;;;0.70;0.70;;;;;;;8.09;62.33;95031.78;5072732;28;20665;-62
2022/12/07 03:53:22;;;;;;;4.45;2.28;;;;;;;7.93;61.80;95022.94;5052907;28;20200;-64
2022/12/07 03:55:52;;;;;;;1.90;1.70;;;;;;;8.05;61.73;95026.25;5068124;28;20282;-64
2022/12/07 03:58:21;;;;;;;1.67;1.45;;;;;;;8.05;61.51;95025.44;5065331;28;20204;-62
2022/12/07 04:00:50;;;;;;;0.35;0.35;;;;;;;8.20;61.75;95017.88;5066768;28;20196;-63
2022/12/07 04:03:17;;;;;;;0.30;0.30;;;;;;;8.04;61.75;95013.44;5072563;28;20261;-66
2022/12/07 04:05:44;;;;;;;6.70;2.23;;;;;;;7.81;62.31;95013.59;5060173;28;20577;-62
2022/12/07 04:08:11;;;;;;;1.23;0.60;;;;;;;7.79;62.54;95026.06;5066550;28;20489;-64
2022/12/07 04:10:38;;;;;;;2.83;2.33;;;;;;;7.78;62.80;95019.25;5052360;28;20994;-64
2022/12/07 04:13:05;;;;;;;1.00;1.00;;;;;;;7.89;62.18;95014.00;5054770;28;20780;-64
2022/12/07 04:15:32;;;;;;;0.68;0.68;;;;;;;7.78;62.07;95014.03;5063808;28;20439;-63
2022/12/07 04:17:59;;;;;;;0.00;0.00;;;;;;;7.81;62.08;95013.59;5067245;28;20216;-61
2022/12/07 04:20:25;;;;;;;0.17;0.17;;;;;;;7.81;62.67;95014.34;5072351;28;20310;-64
2022/12/07 04:22:52;;;;;;;4.47;1.30;;;;;;;7.74;62.75;95013.72;5059035;28;20239;-64
2022/12/07 04:25:19;;;;;;;0.88;0.88;;;;;;;8.11;61.78;95014.88;5071970;28;20191;-66
2022/12/07 04:27:46;;;;;;;1.08;0.98;;;;;;;8.10;61.80;95015.88;5072314;28;20195;-64
2022/12/07 04:30:13;;;;;;;1.58;1.48;;;;;;;7.82;62.11;95025.59;5071850;28;20194;-63
2022/12/07 04:32:40;;;;;;;0.30;0.30;;;;;;;7.79;62.11;95026.06;5062122;28;20199;-64
2022/12/07 04:35:07;;;;;;;1.45;1.35;;;;;;;7.92;62.35;95020.53;5052225;28;20192;-66
2022/12/07 04:37:34;;;;;;;0.82;0.82;;;;;;;7.95;62.38;95020.88;5060929;28;20264;-65
2022/12/07 04:40:01;;;;;;;0.80;0.80;;;;;;;7.70;62.39;95017.81;5057630;28;20687;-62
2022/12/07 04:42:29;;;;;;;0.75;0.75;;;;;;;7.79;62.88;95020.84;5064838;28;20703;-66
2022/12/07 04:44:55;;;;;;;1.17;1.08;;;;;;;7.72;61.94;95025.44;5071296;28;20283;-65
2022/12/07 04:47:22;;;;;;;1.67;1.58;;;;;;;7.97;61.59;95034.47;5066423;28;20228;-62
2022/12/07 04:49:49;;;;;;;1.45;1.17;;;;;;;7.81;61.72;95034.47;5062618;28;20329;-65
2022/12/07 04:52:16;;;;;;;1.58;1.48;;;;;;;7.73;61.87;95034.81;5054113;28;20193;-63
2022/12/07 04:54:43;;;;;;;1.05;1.05;;;;;;;7.49;62.80;95030.72;5052012;28;20184;-63
2022/12/07 04:57:09;;;;;;;0.47;0.47;;;;;;;7.00;64.34;95032.13;5051396;28;20671;-63
2022/12/07 04:59:36;;;;;;;1.95;1.33;;;;;;;6.97;64.23;95038.56;5069797;28;20218;-65
2022/12/07 05:02:10;;;;;;;1.27;1.27;;;;;;;7.60;62.49;95027.28;5055125;28;20204;-65
2022/12/07 05:04:37;;;;;;;2.25;2.05;;;;;;;7.78;61.57;95034.91;5049931;28;20216;-62
2022/12/07 05:07:04;;;;;;;1.35;0.85;;;;;;;7.68;61.40;95019.88;5049966;28;20219;-64
2022/12/07 05:09:31;;;;;;;3.92;1.67;;;;;;;7.60;61.75;95028.06;5055664;28;20200;-65
2022/12/07 05:11:58;;;;;;;6.05;1.88;;;;;;;7.74;61.55;95034.59;5070855;28;20212;-64
2022/12/07 05:14:27;;;;;;;0.82;0.82;;;;;;;7.74;61.13;95039.00;5056354;28;20196;-64
2022/12/07 05:16:54;;;;;;;1.52;1.45;;;;;;;7.75;61.62;95038.00;5060796;28;20227;-64
2022/12/07 05:19:21;;;;;;;2.92;0.80;;;;;;;7.81;61.75;95043.06;5068683;28;20987;-64
2022/12/07 05:21:48;;;;;;;0.95;0.95;;;;;;;7.74;61.19;95033.78;5056389;28;20223;-63
2022/12/07 05:24:16;;;;;;;0.40;0.40;;;;;;;7.61;62.70;95028.88;5071133;28;20654;-63
2022/12/07 05:26:44;;;;;;;2.60;1.60;;;;;;;7.67;62.50;95033.16;5057026;28;20556;-64
2022/12/07 05:29:13;;;;;;;5.83;3.70;;;;;;;7.77;62.32;95028.13;5059908;28;20196;-63
2022/12/07 05:31:40;;;;;;;1.38;1.27;;;;;;;7.80;61.38;95022.44;5063797;28;20487;-63
2022/12/07 05:34:07;;;;;;;3.00;2.35;;;;;;;7.90;61.25;95023.38;5050309;28;20204;-63
2022/12/07 05:36:34;;;;;;;4.65;3.17;;;;;;;7.19;64.25;95033.53;5050660;28;20208;-64
2022/12/07 05:39:01;;;;;;;0.20;0.20;;;;;;;7.53;63.22;95011.00;5057279;28;20188;-67
2022/12/07 05:44:13;;;;;;;1.85;1.75;;;;;;;7.82;63.20;95030.81;5060747;28;20754;-63
2022/12/07 05:46:42;;;;;;;5.22;4.75;;;;;;;7.91;61.97;95018.97;5056700;28;20660;-64
2022/12/07 05:49:09;;;;;;;11.00;4.28;;;;;;;8.06;61.31;95027.81;5062517;28;20777;-64
2022/12/07 05:51:35;;;;;;;1.42;1.33;;;;;;;8.11;61.21;95020.09;5049161;28;20275;-64
2022/12/07 05:54:03;;;;;;;1.83;1.73;;;;;;;8.02;61.23;95012.88;5064271;28;20265;-61
2022/12/07 05:56:30;;;;;;;1.77;1.67;;;;;;;8.06;60.98;95012.16;5056510;28;20243;-62
2022/12/07 06:01:55;;;;;;;1.45;1.23;;;;;;;7.39;64.80;95020.13;5036505;28;20193;-65
2022/12/07 06:04:22;;;;;;;3.07;2.87;;;;;;;7.85;63.58;95020.69;5064810;28;20241;-65
2022/12/07 06:06:50;;;;;;;3.55;2.30;;;;;;;7.93;63.55;95024.75;5069567;28;20468;-64
2022/12/07 06:09:21;;;;;;;6.20;2.70;;;;;;;7.86;63.16;95024.91;5069056;28;20210;-65
2022/12/07 06:14:33;;;;;;;1.83;1.73;;;;;;;7.36;64.13;95026.56;5064999;28;20203;-64
2022/12/07 06:17:00;;;;;;;6.10;3.80;;;;;;;7.76;63.00;95023.91;5062162;28;20439;-65
2022/12/07 06:19:27;;;;;;;5.00;4.27;;;;;;;7.98;62.15;95030.03;5049765;28;20447;-64
2022/12/07 06:21:55;;;;;;;1.45;1.35;;;;;;;8.08;62.66;95028.38;5055615;28;20521;-64
2022/12/07 06:24:23;;;;;;;4.35;1.75;;;;;;;7.69;63.08;95031.09;5056961;28;20914;-65
2022/12/07 06:26:50;;;;;;;2.03;1.37;;;;;;;8.19;62.21;95027.53;5068136;28;20232;-64
2022/12/07 06:29:18;;;;;;;0.83;0.80;;;;;;;8.42;61.63;95005.72;5058544;28;20513;-64
2022/12/07 06:31:45;;;;;;;3.27;2.97;;;;;;;7.73;62.13;95037.44;5059752;28;20451;-64
2022/12/07 06:34:15;;;;;;;2.85;2.67;;;;;;;8.04;62.27;95034.31;5058524;28;20533;-65
2022/12/07 06:36:42;;;;;;;0.80;0.77;;;;;;;8.37;62.22;95023.94;5068070;28;20207;-64
2022/12/07 06:39:09;;;;;;;0.57;0.57;;;;;;;8.56;61.83;95027.84;5057165;28;20219;-64
2022/12/07 06:41:39;;;;;;;8.02;2.40;;;;;;;8.54;61.32;95023.91;5069756;28;20196;-63
2022/12/07 06:44:06;;;;;;;3.20;2.90;;;;;;;8.55;62.11;95030.72;5047400;28;20426;-63
2022/12/07 06:46:35;;;;;;;0.70;0.70;;;;;;;8.71;60.71;95030.69;5061334;28;20199;-64
2022/12/07 06:49:03;;;;;;;1.65;1.55;;;;;;;8.83;60.09;95039.22;5047660;28;20673;-64
2022/12/07 06:51:32;;;;;;;2.07;1.97;;;;;;;8.80;60.45;95044.13;5056649;28;20246;-63
2022/12/07 06:53:59;;;;;;;1.30;1.15;;;;;;;8.67;61.03;95042.66;5049060;28;20523;-64
2022/12/07 06:56:26;;;;;;;0.95;0.93;;;;;;;8.56;60.89;95046.13;5062797;28;20213;-62
2022/12/07 06:58:53;;;;;;;2.77;1.80;;;;;;;8.46;61.03;95043.38;5061599;28;20640;-64
2022/12/07 07:01:20;;;;;;;0.50;0.50;;;;;;;8.57;61.09;95037.28;5064264;28;20492;-64
2022/12/07 07:03:47;;;;;;;1.90;1.63;;;;;;;8.72;60.73;95045.31;5059611;28;20227;-63
2022/12/07 07:06:14;;;;;;;3.00;1.57;;;;;;;8.52;61.18;95033.81;5066339;28;20439;-63
2022/12/07 07:08:41;;;;;;;5.10;3.23;;;;;;;8.34;62.10;95040.06;5058315;28;20446;-67
2022/12/07 07:11:09;;;;;;;3.03;2.67;;;;;;;8.29;63.43;95036.56;5067643;28;20434;-63
2022/12/07 07:13:36;;;;;;;1.50;0.68;;;;;;;8.50;62.20;95034.06;5048484;28;20474;-63
2022/12/07 07:16:03;;;;;;;0.80;0.80;;;;;;;8.15;63.43;95044.72;5062986;28;20195;-65
2022/12/07 07:18:30;;;;;;;2.23;2.03;;;;;;;8.32;63.02;95042.09;5054634;28;20199;-66
2022/12/07 07:20:57;;;;;;;1.17;0.70;;;;;;;8.46;62.95;95048.63;5056694;28;20825;-63
2022/12/07 07:23:24;;;;;;;3.20;2.15;;;;;;;8.80;61.77;95044.94;5067086;28;20445;-64
2022/12/07 07:25:51;;;;;;;3.73;3.07;;;;;;;8.82;61.52;95048.09;5068890;28;20286;-63
2022/12/07 07:28:18;;;;;;;0.63;0.63;;;;;;;8.89;62.17;95042.69;5065624;28;20449;-64
2022/12/07 07:30:45;;;;;;;1.37;1.27;;;;;;;9.11;60.65;95046.91;5057453;28;20541;-64
2022/12/07 07:33:12;;;;;;;2.67;2.03;;;;;;;8.80;62.00;95050.16;5054469;28;20538;-62
2022/12/07 07:35:39;;;;;;;7.97;5.60;;;;;;;8.98;61.79;95047.25;5068980;28;20532;-66
2022/12/07 07:38:07;;;;;;;3.90;3.50;;;;;;;9.04;61.42;95055.97;5068820;28;20512;-65
2022/12/07 07:40:34;;;;;;;0.63;0.63;;;;;;;8.87;61.88;95050.78;5068776;28;20449;-64
2022/12/07 07:43:01;;;;;;;3.67;3.37;;;;;;;9.07;61.19;95048.44;5068079;28;20905;-64
2022/12/07 07:45:29;;;;;;;2.70;2.03;;;;;;;9.30;60.05;95051.84;5062476;28;20487;-64
2022/12/07 07:47:56;;;;;;;3.20;2.03;;;;;;;9.65;59.65;95044.41;5056508;28;20242;-64
2022/12/07 07:50:23;;;;;;;4.60;2.53;;;;;;;9.73;58.74;95049.19;5052747;28;20838;-63
2022/12/07 07:52:51;;;;;;;2.47;2.27;;;;;;;9.83;58.54;95041.47;5052866;28;20457;-64
2022/12/07 07:55:18;;;;;;;1.10;1.10;;;;;;;9.91;58.75;95035.78;5067121;28;20473;-63
2022/12/07 07:57:45;;;;;;;5.07;4.57;;;;;;;9.98;58.47;95046.84;5066968;28;20446;-64
2022/12/07 08:00:19;;;;;;;10.57;6.80;;;;;;;10.01;58.22;95036.69;5068707;28;20527;-63
2022/12/07 08:02:46;;;;;;;5.50;4.00;;;;;;;10.41;57.70;95038.06;5054825;28;21017;-64
2022/12/07 08:05:13;;;;;;;2.80;2.63;;;;;;;10.38;57.40;95049.88;5069189;28;20470;-64
2022/12/07 08:07:40;;;;;;;2.83;2.63;;;;;;;10.27;57.33;95050.81;5069366;28;20529;-65
2022/12/07 08:10:11;;;;;;;1.93;1.77;;;;;;;10.51;56.63;95041.56;5069382;28;20481;-63
2022/12/07 08:13:10;;;;;;;8.77;3.03;;;;;;;10.38;56.85;95052.47;5055307;28;20447;-64
2022/12/07 08:15:29;;;;;;;2.23;2.13;;;;;;;10.42;56.81;95043.06;5057755;28;20536;-64
2022/12/07 08:17:57;;;;;;;8.63;2.43;;;;;;;10.26;57.08;95033.50;5054734;28;20478;-64
2022/12/07 08:20:24;;;;;;;2.70;2.33;;;;;;;10.15;57.25;95037.06;5068918;28;20503;-63
2022/12/07 08:22:51;;;;;;;2.57;2.37;;;;;;;9.83;58.30;95042.25;5055087;28;20446;-63
2022/12/07 08:25:18;;;;;;;4.73;3.70;;;;;;;9.81;58.48;95040.91;5056330;28;20506;-63
2022/12/07 08:27:45;;;;;;;1.87;1.77;;;;;;;9.84;57.61;95009.00;5060332;28;20451;-64
2022/12/07 08:30:12;;;;;;;1.50;1.43;;;;;;;10.47;56.90;95035.25;5070735;28;20597;-64
2022/12/07 08:32:39;;;;;;;2.87;2.57;;;;;;;11.05;56.56;95031.69;5062198;28;20525;-64
2022/12/07 08:35:07;;;;;;;1.20;1.13;;;;;;;11.27;55.21;95034.94;5068699;28;20446;-64
2022/12/07 08:37:34;;;;;;;4.83;3.37;;;;;;;11.40;54.74;95033.69;5072464;28;20442;-63
2022/12/07 08:40:02;;;;;;;2.17;1.97;;;;;;;11.10;55.21;95034.34;5072396;28;21040;-63
2022/12/07 08:42:37;;;;;;;0.73;0.73;;;;;;;11.00;55.05;95035.06;5065512;28;20469;-64
2022/12/07 08:45:10;;;;;;;2.03;1.40;;;;;;;10.99;55.44;95033.50;5066895;28;20526;-64
2022/12/07 08:47:42;;;;;;;1.57;1.47;;;;;;;10.24;56.80;95032.97;5071898;28;20920;-63
2022/12/07 08:50:11;;;;;;;1.83;1.43;;;;;;;10.22;57.06;95036.88;5071682;28;20457;-66
2022/12/07 08:52:40;;;;;;;2.23;2.10;;;;;;;10.13;57.33;95024.25;5057965;28;20495;-64
2022/12/07 08:55:09;;;;;;;3.33;3.07;;;;;;;10.20;57.05;95009.09;5072429;28;20495;-64
2022/12/07 08:57:38;;;;;;;2.37;1.93;;;;;;;10.36;57.45;95023.13;5069737;28;20441;-64
2022/12/07 09:00:07;;;;;;;1.57;1.47;;;;;;;10.06;57.64;94997.44;5051802;28;21011;-63
2022/12/07 09:02:34;;;;;;;2.47;2.30;;;;;;;10.36;57.34;95007.41;5066615;28;20445;-64
2022/12/07 09:05:01;;;;;;;1.43;1.33;;;;;;;10.49;57.29;95009.56;5071931;28;20485;-65
2022/12/07 09:07:31;;;;;;;1.13;1.10;;;;;;;10.20;57.96;95005.69;5058435;28;20466;-64
2022/12/07 09:09:58;;;;;;;2.60;2.27;;;;;;;10.39;57.72;95014.75;5057566;28;20501;-65
2022/12/07 09:12:26;;;;;;;3.23;2.60;;;;;;;10.26;57.94;95012.56;5071603;28;20525;-66
2022/12/07 09:14:53;;;;;;;2.60;2.40;;;;;;;9.84;59.14;95003.78;5057581;28;20865;-63
2022/12/07 09:17:20;;;;;;;2.03;1.87;;;;;;;9.77;59.25;95005.81;5061091;28;20447;-62
2022/12/07 09:19:47;;;;;;;2.47;2.10;;;;;;;10.25;57.79;94995.28;5053664;28;20434;-64
2022/12/07 09:22:14;;;;;;;1.23;1.23;;;;;;;10.35;57.41;94997.97;5062673;28;20454;-63
2022/12/07 09:24:40;;;;;;;2.97;1.00;;;;;;;10.50;56.84;94998.06;5051313;28;20540;-64
2022/12/07 09:27:07;;;;;;;2.97;2.70;;;;;;;10.63;56.50;94991.59;5058296;28;20450;-63
2022/12/07 09:29:34;;;;;;;10.63;5.43;;;;;;;10.44;57.26;94988.59;5058196;28;20977;-66
2022/12/07 09:32:01;;;;;;;0.37;0.37;;;;;;;10.54;56.66;94993.13;5065785;28;20449;-63
2022/12/07 09:34:36;;;;;;;2.37;2.20;;;;;;;10.41;56.99;94994.34;5063472;28;20441;-64
2022/12/07 09:37:03;;;;;;;6.40;2.87;;;;;;;10.40;57.22;94982.28;5052286;28;20435;-64
2022/12/07 09:39:30;;;;;;;9.50;2.57;;;;;;;10.52;57.03;94980.28;5051055;28;20823;-64
2022/12/07 09:41:59;;;;;;;3.90;1.03;;;;;;;10.61;56.34;94963.03;5062940;28;20542;-64
2022/12/07 09:44:26;;;;;;;1.70;1.60;;;;;;;10.59;56.78;94969.56;5070861;28;20473;-64
2022/12/07 09:46:54;;;;;;;7.20;2.83;;;;;;;10.49;56.78;94954.56;5070665;28;20941;-64
2022/12/07 09:49:25;;;;;;;2.53;2.07;;;;;;;10.14;57.66;94973.44;5068427;28;20442;-66
2022/12/07 09:52:22;;;;;;;1.10;1.07;;;;;;;10.24;57.21;94974.59;5051139;28;20458;-65
2022/12/07 09:54:51;;;;;;;6.83;3.50;;;;;;;10.65;56.63;94964.13;5050243;28;20443;-64
2022/12/07 09:57:25;;;;;;;2.43;1.67;;;;;;;10.83;56.20;94955.81;5064418;28;20502;-64
2022/12/07 09:59:52;;;;;;;1.83;1.73;;;;;;;11.00;55.16;94955.63;5057056;28;20473;-64
2022/12/07 10:02:34;;;;;;;1.10;1.07;;;;;;;11.05;55.14;94959.06;5070570;28;20790;-64
2022/12/07 10:05:03;;;;;;;3.93;2.03;;;;;;;11.00;54.87;94945.91;5070385;28;20909;-65
2022/12/07 10:07:30;;;;;;;2.93;2.73;;;;;;;11.31;54.65;94943.41;5057303;28;20437;-65
2022/12/07 10:09:57;;;;;;;0.80;0.80;;;;;;;10.96;55.87;94950.13;5069982;28;20442;-63
2022/12/07 10:12:24;;;;;;;0.43;0.43;;;;;;;10.83;56.28;94940.09;5070502;28;20481;-65
2022/12/07 10:15:03;;;;;;;3.97;2.83;;;;;;;10.91;55.36;94944.84;5070212;28;20486;-64
2022/12/07 10:17:49;;;;;;;0.90;0.90;;;;;;;11.14;55.02;94933.94;5070687;28;20515;-64
2022/12/07 10:20:24;;;;;;;10.50;2.43;;;;;;;10.98;54.99;94932.28;5056748;28;20434;-64
2022/12/07 10:23:13;;;;;;;0.83;0.83;;;;;;;11.24;55.37;94926.06;5056587;28;20885;-63
2022/12/07 10:25:40;;;;;;;2.20;1.60;;;;;;;11.44;54.56;94924.56;5059061;28;20672;-64
2022/12/07 10:28:07;;;;;;;2.57;2.37;;;;;;;11.59;54.22;94927.19;5056004;28;20542;-64
2022/12/07 10:30:59;;;;;;;1.73;1.63;;;;;;;10.86;55.02;94929.09;5063085;28;21049;-65
2022/12/07 10:33:38;;;;;;;3.40;2.90;;;;;;;11.16;54.53;94915.31;5052572;28;20439;-64
2022/12/07 10:36:35;;;;;;;15.13;1.20;;;;;;;11.53;53.84;94902.00;5070124;28;20585;-64
2022/12/07 10:39:14;;;;;;;1.37;1.27;;;;;;;11.95;53.60;94902.59;5050324;28;20447;-65
2022/12/07 10:41:58;;;;;;;3.47;2.23;;;;;;;12.13;52.93;94896.81;5064135;28;20450;-65
2022/12/07 10:44:30;;;;;;;1.50;1.40;;;;;;;12.11;52.45;94891.03;5070177;28;20461;-65
2022/12/07 10:47:23;;;;;;;0.80;0.80;;;;;;;12.33;52.63;94891.53;5055283;28;20961;-64
2022/12/07 10:50:08;;;;;;;2.43;2.23;;;;;;;12.12;52.15;94888.13;5022653;28;20451;-64
2022/12/07 10:52:35;;;;;;;1.77;1.67;;;;;;;12.06;52.33;94886.56;5049740;28;20450;-63
2022/12/07 10:55:21;;;;;;;1.07;1.07;;;;;;;11.62;52.85;94892.56;5059056;28;20525;-64
2022/12/07 10:58:16;;;;;;;2.50;2.07;;;;;;;12.01;52.15;94886.56;5055808;28;20442;-63
2022/12/07 11:00:47;;;;;;;0.53;0.53;;;;;;;12.04;52.22;94872.91;5070281;28;20446;-65
2022/12/07 11:04:05;;;;;;;2.13;1.70;;;;;;;12.32;52.73;94874.16;5070281;28;20448;-64
2022/12/07 11:06:41;;;;;;;0.43;0.43;;;;;;;12.39;52.25;94851.03;5016096;28;20490;-65
2022/12/07 11:09:23;;;;;;;0.83;0.83;;;;;;;12.35;52.40;94862.34;5049718;28;20445;-64
2022/12/07 11:12:19;;;;;;;0.80;0.80;;;;;;;12.59;51.87;94852.81;5050015;28;20434;-63
2022/12/07 11:15:03;;;;;;;0.70;0.70;;;;;;;12.41;51.86;94854.19;5067366;28;20856;-63
2022/12/07 11:17:42;;;;;;;9.33;1.40;;;;;;;12.65;51.76;94863.03;5070241;28;20949;-64
2022/12/07 11:20:33;;;;;;;1.87;1.40;;;;;;;12.31;51.98;94858.69;5056048;28;20453;-65
2022/12/07 11:23:41;;;;;;;1.37;1.27;;;;;;;12.45;52.13;94852.59;5054732;28;20794;-65
2022/12/07 11:26:36;;;;;;;0.60;0.60;;;;;;;12.44;52.22;94850.25;5044480;28;20520;-64
2022/12/07 11:29:11;;;;;;;1.33;0.97;;;;;;;12.09;52.49;94848.47;5058922;28;20477;-64
2022/12/07 11:32:04;;;;;;;1.70;1.60;;;;;;;12.49;52.36;94832.63;5067730;28;20924;-64
2022/12/07 11:35:10;;;;;;;1.67;1.53;;;;;;;12.67;51.90;94818.06;5049603;28;20788;-64
2022/12/07 11:37:40;;;;;;;1.57;0.73;;;;;;;12.46;52.36;94827.91;5049150;28;20945;-65
2022/12/07 11:40:29;;;;;;;0.77;0.77;;;;;;;12.70;51.54;94828.84;5066171;28;20798;-65
2022/12/07 11:43:16;;;;;;;0.77;0.57;;;;;;;12.94;50.73;94819.25;5058753;28;20861;-65
2022/12/07 11:45:48;;;;;;;0.37;0.37;;;;;;;13.32;49.32;94816.97;5054770;28;20481;-65
2022/12/07 11:48:33;;;;;;;1.80;1.43;;;;;;;13.32;49.35;94812.47;5069175;28;20466;-64
2022/12/07 11:51:03;;;;;;;0.20;0.20;;;;;;;13.07;49.29;94823.97;5052335;28;20451;-65
2022/12/07 11:53:39;;;;;;;1.20;1.20;;;;;;;12.75;50.17;94814.91;5049673;28;20563;-64
2022/12/07 11:56:15;;;;;;;1.33;0.77;;;;;;;12.87;49.67;94823.25;5049458;28;20858;-64
2022/12/07 11:58:42;;;;;;;0.57;0.57;;;;;;;12.91;50.41;94814.56;5060750;28;20456;-64
2022/12/07 12:01:19;;;;;;;2.10;1.80;;;;;;;13.44;49.59;94806.88;5058851;28;20503;-65
2022/12/07 12:03:49;;;;;;;0.50;0.50;;;;;;;14.36;47.67;94790.75;5073145;28;20633;-66
2022/12/07 12:06:21;;;;;;;1.47;1.37;;;;;;;15.66;45.43;94784.75;5058360;28;20551;-64
2022/12/07 12:08:56;;;;;;;0.10;0.10;;;;;;;15.89;43.33;94778.59;5062598;28;20504;-65